sensor_id;sensor_type;location;lat;lon;timestamp;P1;durP1;ratioP1;P2;durP2;ratioP2
4786;SDS011;62338;48.832;9.422;2022-12-10T00:01:37;44.60;;;25.50;;
4786;SDS011;62338;48.832;9.422;2022-12-10T00:03:39;48.70;;;28.67;;
4786;SDS011;62338;48.832;9.422;2022-12-10T00:05:40;43.27;;;24.90;;
4786;SDS011;62338;48.832;9.422;2022-12-10T00:07:42;43.33;;;24.70;;
4786;SDS011;62338;48.832;9.422;2022-12-10T00:09:44;51.20;;;25.50;;
4786;SDS011;62338;48.832;9.422;2022-12-10T00:11:46;38.87;;;24.80;;
4786;SDS011;62338;48.832;9.422;2022-12-10T00:13:48;45.80;;;25.23;;
4786;SDS011;62338;48.832;9.422;2022-12-10T00:15:51;49.80;;;26.70;;
4786;SDS011;62338;48.832;9.422;2022-12-10T00:17:53;39.83;;;24.07;;
4786;SDS011;62338;48.832;9.422;2022-12-10T00:19:54;42.40;;;24.23;;
4786;SDS011;62338;48.832;9.422;2022-12-10T00:21:56;39.80;;;23.20;;
4786;SDS011;62338;48.832;9.422;2022-12-10T00:23:58;40.13;;;24.73;;
4786;SDS011;62338;48.832;9.422;2022-12-10T00:28:17;41.10;;;24.30;;
4786;SDS011;62338;48.832;9.422;2022-12-10T00:30:18;44.50;;;27.10;;
4786;SDS011;62338;48.832;9.422;2022-12-10T00:32:20;47.03;;;26.77;;
4786;SDS011;62338;48.832;9.422;2022-12-10T00:34:22;43.33;;;24.97;;
4786;SDS011;62338;48.832;9.422;2022-12-10T00:36:25;44.47;;;24.20;;
4786;SDS011;62338;48.832;9.422;2022-12-10T00:38:28;41.27;;;23.70;;
4786;SDS011;62338;48.832;9.422;2022-12-10T00:40:30;40.73;;;23.77;;
4786;SDS011;62338;48.832;9.422;2022-12-10T00:42:31;39.10;;;23.70;;
4786;SDS011;62338;48.832;9.422;2022-12-10T00:44:33;43.57;;;24.07;;
4786;SDS011;62338;48.832;9.422;2022-12-10T00:46:35;41.77;;;24.90;;
4786;SDS011;62338;48.832;9.422;2022-12-10T00:48:37;43.13;;;25.43;;
4786;SDS011;62338;48.832;9.422;2022-12-10T00:50:39;44.37;;;25.83;;
4786;SDS011;62338;48.832;9.422;2022-12-10T00:52:41;46.73;;;25.50;;
4786;SDS011;62338;48.832;9.422;2022-12-10T00:54:42;45.70;;;25.47;;
4786;SDS011;62338;48.832;9.422;2022-12-10T00:56:44;42.47;;;25.30;;
4786;SDS011;62338;48.832;9.422;2022-12-10T00:58:47;39.77;;;23.00;;
4786;SDS011;62338;48.832;9.422;2022-12-10T01:00:49;41.53;;;23.93;;
4786;SDS011;62338;48.832;9.422;2022-12-10T01:02:51;43.40;;;25.57;;
4786;SDS011;62338;48.832;9.422;2022-12-10T01:04:54;44.37;;;24.83;;
4786;SDS011;62338;48.832;9.422;2022-12-10T01:06:56;44.73;;;24.73;;
4786;SDS011;62338;48.832;9.422;2022-12-10T01:08:58;43.83;;;24.47;;
4786;SDS011;62338;48.832;9.422;2022-12-10T01:11:02;41.57;;;23.47;;
4786;SDS011;62338;48.832;9.422;2022-12-10T01:13:04;36.83;;;23.10;;
4786;SDS011;62338;48.832;9.422;2022-12-10T01:15:06;41.20;;;24.27;;
4786;SDS011;62338;48.832;9.422;2022-12-10T01:17:08;47.67;;;24.00;;
4786;SDS011;62338;48.832;9.422;2022-12-10T01:19:10;42.63;;;24.93;;
4786;SDS011;62338;48.832;9.422;2022-12-10T01:21:15;40.27;;;23.73;;
4786;SDS011;62338;48.832;9.422;2022-12-10T01:23:18;39.33;;;23.47;;
4786;SDS011;62338;48.832;9.422;2022-12-10T01:25:20;38.87;;;24.00;;
4786;SDS011;62338;48.832;9.422;2022-12-10T01:27:22;42.97;;;24.10;;
4786;SDS011;62338;48.832;9.422;2022-12-10T01:29:24;42.57;;;23.90;;
4786;SDS011;62338;48.832;9.422;2022-12-10T01:31:27;36.10;;;23.53;;
4786;SDS011;62338;48.832;9.422;2022-12-10T01:33:31;36.33;;;21.53;;
4786;SDS011;62338;48.832;9.422;2022-12-10T01:35:35;38.67;;;23.90;;
4786;SDS011;62338;48.832;9.422;2022-12-10T01:37:38;42.00;;;23.73;;
4786;SDS011;62338;48.832;9.422;2022-12-10T01:39:40;40.03;;;24.10;;
4786;SDS011;62338;48.832;9.422;2022-12-10T01:41:46;37.30;;;22.80;;
4786;SDS011;62338;48.832;9.422;2022-12-10T01:45:54;40.70;;;24.37;;
4786;SDS011;62338;48.832;9.422;2022-12-10T01:47:56;41.80;;;23.77;;
4786;SDS011;62338;48.832;9.422;2022-12-10T01:50:01;39.70;;;24.57;;
4786;SDS011;62338;48.832;9.422;2022-12-10T01:52:05;43.30;;;24.93;;
4786;SDS011;62338;48.832;9.422;2022-12-10T01:54:15;38.67;;;23.30;;
4786;SDS011;62338;48.832;9.422;2022-12-10T01:56:20;41.20;;;22.80;;
4786;SDS011;62338;48.832;9.422;2022-12-10T01:58:22;36.63;;;23.40;;
4786;SDS011;62338;48.832;9.422;2022-12-10T02:00:24;39.80;;;24.27;;
4786;SDS011;62338;48.832;9.422;2022-12-10T02:06:48;43.43;;;22.83;;
4786;SDS011;62338;48.832;9.422;2022-12-10T02:09:01;37.50;;;24.47;;
4786;SDS011;62338;48.832;9.422;2022-12-10T02:13:19;37.80;;;23.60;;
4786;SDS011;62338;48.832;9.422;2022-12-10T02:15:31;42.87;;;25.40;;
4786;SDS011;62338;48.832;9.422;2022-12-10T02:18:37;36.23;;;23.50;;
4786;SDS011;62338;48.832;9.422;2022-12-10T02:22:26;40.37;;;23.93;;
4786;SDS011;62338;48.832;9.422;2022-12-10T02:24:32;40.50;;;24.23;;
4786;SDS011;62338;48.832;9.422;2022-12-10T02:29:12;40.03;;;23.67;;
4786;SDS011;62338;48.832;9.422;2022-12-10T02:31:26;40.50;;;24.23;;
4786;SDS011;62338;48.832;9.422;2022-12-10T02:33:31;38.23;;;22.87;;
4786;SDS011;62338;48.832;9.422;2022-12-10T02:35:36;32.97;;;22.30;;
4786;SDS011;62338;48.832;9.422;2022-12-10T02:37:45;37.87;;;23.23;;
4786;SDS011;62338;48.832;9.422;2022-12-10T02:39:51;41.20;;;23.67;;
4786;SDS011;62338;48.832;9.422;2022-12-10T02:41:57;38.23;;;23.40;;
4786;SDS011;62338;48.832;9.422;2022-12-10T02:44:02;37.20;;;23.30;;
4786;SDS011;62338;48.832;9.422;2022-12-10T02:46:08;36.70;;;22.50;;
4786;SDS011;62338;48.832;9.422;2022-12-10T02:48:10;36.80;;;23.93;;
4786;SDS011;62338;48.832;9.422;2022-12-10T02:50:13;38.70;;;22.70;;
4786;SDS011;62338;48.832;9.422;2022-12-10T02:52:20;42.57;;;24.50;;
4786;SDS011;62338;48.832;9.422;2022-12-10T02:54:34;34.73;;;22.70;;
4786;SDS011;62338;48.832;9.422;2022-12-10T02:56:45;35.20;;;21.57;;
4786;SDS011;62338;48.832;9.422;2022-12-10T03:04:01;46.77;;;23.67;;
4786;SDS011;62338;48.832;9.422;2022-12-10T03:08:19;42.90;;;25.00;;
4786;SDS011;62338;48.832;9.422;2022-12-10T03:10:32;36.83;;;23.63;;
4786;SDS011;62338;48.832;9.422;2022-12-10T03:12:36;43.07;;;24.50;;
4786;SDS011;62338;48.832;9.422;2022-12-10T03:14:42;41.17;;;24.30;;
4786;SDS011;62338;48.832;9.422;2022-12-10T03:16:47;40.93;;;22.73;;
4786;SDS011;62338;48.832;9.422;2022-12-10T03:18:55;38.00;;;23.80;;
4786;SDS011;62338;48.832;9.422;2022-12-10T03:21:01;38.43;;;23.07;;
4786;SDS011;62338;48.832;9.422;2022-12-10T03:23:07;39.63;;;23.17;;
4786;SDS011;62338;48.832;9.422;2022-12-10T03:25:12;39.27;;;23.70;;
4786;SDS011;62338;48.832;9.422;2022-12-10T03:27:19;45.70;;;24.10;;
4786;SDS011;62338;48.832;9.422;2022-12-10T03:29:25;37.23;;;22.90;;
4786;SDS011;62338;48.832;9.422;2022-12-10T03:31:31;41.17;;;24.50;;
4786;SDS011;62338;48.832;9.422;2022-12-10T03:33:36;35.10;;;22.50;;
4786;SDS011;62338;48.832;9.422;2022-12-10T03:35:38;36.93;;;23.47;;
4786;SDS011;62338;48.832;9.422;2022-12-10T03:37:40;45.17;;;24.07;;
4786;SDS011;62338;48.832;9.422;2022-12-10T03:39:42;37.63;;;22.60;;
4786;SDS011;62338;48.832;9.422;2022-12-10T03:41:44;39.60;;;23.40;;
4786;SDS011;62338;48.832;9.422;2022-12-10T03:43:56;37.37;;;23.33;;
4786;SDS011;62338;48.832;9.422;2022-12-10T03:45:59;38.50;;;22.30;;
4786;SDS011;62338;48.832;9.422;2022-12-10T03:48:01;35.97;;;21.70;;
4786;SDS011;62338;48.832;9.422;2022-12-10T03:50:03;36.80;;;22.83;;
4786;SDS011;62338;48.832;9.422;2022-12-10T03:52:05;42.57;;;23.00;;
4786;SDS011;62338;48.832;9.422;2022-12-10T03:54:07;33.80;;;21.73;;
4786;SDS011;62338;48.832;9.422;2022-12-10T03:56:09;32.60;;;22.00;;
4786;SDS011;62338;48.832;9.422;2022-12-10T03:58:11;37.13;;;22.67;;
4786;SDS011;62338;48.832;9.422;2022-12-10T04:00:20;39.80;;;22.97;;
4786;SDS011;62338;48.832;9.422;2022-12-10T04:02:21;33.30;;;21.93;;
4786;SDS011;62338;48.832;9.422;2022-12-10T04:04:23;38.93;;;23.73;;
4786;SDS011;62338;48.832;9.422;2022-12-10T04:06:25;42.97;;;23.97;;
4786;SDS011;62338;48.832;9.422;2022-12-10T04:08:27;41.47;;;23.00;;
4786;SDS011;62338;48.832;9.422;2022-12-10T04:10:29;37.00;;;23.03;;
4786;SDS011;62338;48.832;9.422;2022-12-10T04:12:30;33.67;;;21.97;;
4786;SDS011;62338;48.832;9.422;2022-12-10T04:14:32;37.30;;;22.77;;
4786;SDS011;62338;48.832;9.422;2022-12-10T04:16:53;38.00;;;21.53;;
4786;SDS011;62338;48.832;9.422;2022-12-10T04:18:56;37.90;;;22.30;;
4786;SDS011;62338;48.832;9.422;2022-12-10T04:21:01;34.97;;;20.13;;
4786;SDS011;62338;48.832;9.422;2022-12-10T04:23:22;31.53;;;19.53;;
4786;SDS011;62338;48.832;9.422;2022-12-10T04:25:42;28.03;;;18.07;;
4786;SDS011;62338;48.832;9.422;2022-12-10T04:28:20;27.77;;;18.40;;
4786;SDS011;62338;48.832;9.422;2022-12-10T04:30:21;32.47;;;17.40;;
4786;SDS011;62338;48.832;9.422;2022-12-10T04:32:24;27.27;;;18.13;;
4786;SDS011;62338;48.832;9.422;2022-12-10T04:34:27;29.90;;;17.90;;
4786;SDS011;62338;48.832;9.422;2022-12-10T04:36:29;31.13;;;19.23;;
4786;SDS011;62338;48.832;9.422;2022-12-10T04:38:30;28.30;;;18.77;;
4786;SDS011;62338;48.832;9.422;2022-12-10T04:40:32;31.03;;;19.20;;
4786;SDS011;62338;48.832;9.422;2022-12-10T04:42:34;34.47;;;20.60;;
4786;SDS011;62338;48.832;9.422;2022-12-10T04:44:36;30.30;;;20.33;;
4786;SDS011;62338;48.832;9.422;2022-12-10T04:46:38;34.37;;;20.87;;
4786;SDS011;62338;48.832;9.422;2022-12-10T04:48:40;33.67;;;22.00;;
4786;SDS011;62338;48.832;9.422;2022-12-10T04:50:42;33.43;;;19.80;;
4786;SDS011;62338;48.832;9.422;2022-12-10T04:52:44;37.13;;;22.13;;
4786;SDS011;62338;48.832;9.422;2022-12-10T04:54:46;33.87;;;20.20;;
4786;SDS011;62338;48.832;9.422;2022-12-10T04:56:47;32.93;;;20.33;;
4786;SDS011;62338;48.832;9.422;2022-12-10T04:58:49;35.57;;;22.03;;
4786;SDS011;62338;48.832;9.422;2022-12-10T05:00:51;35.33;;;20.70;;
4786;SDS011;62338;48.832;9.422;2022-12-10T05:02:53;31.70;;;20.63;;
4786;SDS011;62338;48.832;9.422;2022-12-10T05:04:55;36.47;;;21.60;;
4786;SDS011;62338;48.832;9.422;2022-12-10T05:06:56;31.67;;;20.97;;
4786;SDS011;62338;48.832;9.422;2022-12-10T05:08:58;36.97;;;22.50;;
4786;SDS011;62338;48.832;9.422;2022-12-10T05:11:01;35.73;;;22.70;;
4786;SDS011;62338;48.832;9.422;2022-12-10T05:13:03;40.37;;;24.23;;
4786;SDS011;62338;48.832;9.422;2022-12-10T05:15:05;41.97;;;25.33;;
4786;SDS011;62338;48.832;9.422;2022-12-10T05:17:08;42.67;;;24.90;;
4786;SDS011;62338;48.832;9.422;2022-12-10T05:19:09;42.93;;;24.53;;
4786;SDS011;62338;48.832;9.422;2022-12-10T05:21:14;44.70;;;24.17;;
4786;SDS011;62338;48.832;9.422;2022-12-10T05:23:18;43.87;;;27.03;;
4786;SDS011;62338;48.832;9.422;2022-12-10T05:25:28;44.93;;;26.00;;
4786;SDS011;62338;48.832;9.422;2022-12-10T05:27:31;46.33;;;23.97;;
4786;SDS011;62338;48.832;9.422;2022-12-10T05:29:34;42.07;;;23.37;;
4786;SDS011;62338;48.832;9.422;2022-12-10T05:31:36;35.03;;;22.53;;
4786;SDS011;62338;48.832;9.422;2022-12-10T05:33:37;45.73;;;25.17;;
4786;SDS011;62338;48.832;9.422;2022-12-10T05:35:39;42.93;;;22.83;;
4786;SDS011;62338;48.832;9.422;2022-12-10T05:37:41;38.20;;;22.20;;
4786;SDS011;62338;48.832;9.422;2022-12-10T05:39:43;36.07;;;22.90;;
4786;SDS011;62338;48.832;9.422;2022-12-10T05:41:44;33.33;;;22.10;;
4786;SDS011;62338;48.832;9.422;2022-12-10T05:43:47;42.30;;;23.17;;
4786;SDS011;62338;48.832;9.422;2022-12-10T05:45:49;37.77;;;22.90;;
4786;SDS011;62338;48.832;9.422;2022-12-10T05:47:51;42.80;;;24.30;;
4786;SDS011;62338;48.832;9.422;2022-12-10T05:49:52;38.10;;;23.73;;
4786;SDS011;62338;48.832;9.422;2022-12-10T05:51:54;40.57;;;24.23;;
4786;SDS011;62338;48.832;9.422;2022-12-10T05:53:58;42.23;;;25.83;;
4786;SDS011;62338;48.832;9.422;2022-12-10T05:56:04;40.37;;;24.67;;
4786;SDS011;62338;48.832;9.422;2022-12-10T05:58:07;40.57;;;24.47;;
4786;SDS011;62338;48.832;9.422;2022-12-10T06:00:09;42.20;;;24.13;;
4786;SDS011;62338;48.832;9.422;2022-12-10T06:02:12;40.13;;;24.60;;
4786;SDS011;62338;48.832;9.422;2022-12-10T06:04:13;40.53;;;24.93;;
4786;SDS011;62338;48.832;9.422;2022-12-10T06:06:19;45.00;;;25.07;;
4786;SDS011;62338;48.832;9.422;2022-12-10T06:08:26;38.37;;;24.20;;
4786;SDS011;62338;48.832;9.422;2022-12-10T06:10:27;43.20;;;24.90;;
4786;SDS011;62338;48.832;9.422;2022-12-10T06:12:29;42.17;;;25.57;;
4786;SDS011;62338;48.832;9.422;2022-12-10T06:14:31;39.40;;;24.27;;
4786;SDS011;62338;48.832;9.422;2022-12-10T06:16:33;40.40;;;24.07;;
4786;SDS011;62338;48.832;9.422;2022-12-10T06:18:35;43.13;;;25.47;;
4786;SDS011;62338;48.832;9.422;2022-12-10T06:20:37;40.27;;;22.23;;
4786;SDS011;62338;48.832;9.422;2022-12-10T06:22:46;40.73;;;24.50;;
4786;SDS011;62338;48.832;9.422;2022-12-10T06:24:48;40.33;;;24.10;;
4786;SDS011;62338;48.832;9.422;2022-12-10T06:26:49;44.03;;;24.97;;
4786;SDS011;62338;48.832;9.422;2022-12-10T06:28:55;38.97;;;24.40;;
4786;SDS011;62338;48.832;9.422;2022-12-10T06:30:58;41.83;;;24.10;;
4786;SDS011;62338;48.832;9.422;2022-12-10T06:33:00;40.97;;;25.20;;
4786;SDS011;62338;48.832;9.422;2022-12-10T06:35:02;40.10;;;24.83;;
4786;SDS011;62338;48.832;9.422;2022-12-10T06:37:04;37.03;;;23.40;;
4786;SDS011;62338;48.832;9.422;2022-12-10T06:39:06;44.73;;;26.07;;
4786;SDS011;62338;48.832;9.422;2022-12-10T06:41:09;43.87;;;26.83;;
4786;SDS011;62338;48.832;9.422;2022-12-10T06:43:12;49.83;;;24.23;;
4786;SDS011;62338;48.832;9.422;2022-12-10T06:45:14;38.40;;;24.47;;
4786;SDS011;62338;48.832;9.422;2022-12-10T06:47:16;35.77;;;22.30;;
4786;SDS011;62338;48.832;9.422;2022-12-10T06:49:17;39.43;;;23.03;;
4786;SDS011;62338;48.832;9.422;2022-12-10T06:51:19;41.80;;;24.70;;
4786;SDS011;62338;48.832;9.422;2022-12-10T06:53:21;38.27;;;24.13;;
4786;SDS011;62338;48.832;9.422;2022-12-10T06:55:22;41.90;;;24.13;;
4786;SDS011;62338;48.832;9.422;2022-12-10T06:57:24;39.67;;;24.30;;
4786;SDS011;62338;48.832;9.422;2022-12-10T06:59:26;40.30;;;24.40;;
4786;SDS011;62338;48.832;9.422;2022-12-10T07:01:28;39.13;;;24.13;;
4786;SDS011;62338;48.832;9.422;2022-12-10T07:03:29;40.17;;;24.43;;
4786;SDS011;62338;48.832;9.422;2022-12-10T07:05:31;39.70;;;24.57;;
4786;SDS011;62338;48.832;9.422;2022-12-10T07:07:33;36.73;;;22.53;;
4786;SDS011;62338;48.832;9.422;2022-12-10T07:09:37;35.50;;;21.03;;
4786;SDS011;62338;48.832;9.422;2022-12-10T07:11:39;34.13;;;21.70;;
4786;SDS011;62338;48.832;9.422;2022-12-10T07:13:40;28.07;;;19.87;;
4786;SDS011;62338;48.832;9.422;2022-12-10T07:15:42;31.30;;;19.53;;
4786;SDS011;62338;48.832;9.422;2022-12-10T07:17:44;27.83;;;19.00;;
4786;SDS011;62338;48.832;9.422;2022-12-10T07:19:46;29.60;;;19.53;;
4786;SDS011;62338;48.832;9.422;2022-12-10T07:21:48;29.50;;;19.63;;
4786;SDS011;62338;48.832;9.422;2022-12-10T07:23:50;30.43;;;20.13;;
4786;SDS011;62338;48.832;9.422;2022-12-10T07:25:54;29.20;;;19.33;;
4786;SDS011;62338;48.832;9.422;2022-12-10T07:27:56;31.87;;;19.80;;
4786;SDS011;62338;48.832;9.422;2022-12-10T07:29:58;28.77;;;18.47;;
4786;SDS011;62338;48.832;9.422;2022-12-10T07:32:00;31.63;;;20.17;;
4786;SDS011;62338;48.832;9.422;2022-12-10T07:34:02;28.40;;;17.90;;
4786;SDS011;62338;48.832;9.422;2022-12-10T07:36:05;30.17;;;19.23;;
4786;SDS011;62338;48.832;9.422;2022-12-10T07:38:07;26.80;;;17.80;;
4786;SDS011;62338;48.832;9.422;2022-12-10T07:40:10;29.70;;;19.50;;
4786;SDS011;62338;48.832;9.422;2022-12-10T07:42:12;27.93;;;18.17;;
4786;SDS011;62338;48.832;9.422;2022-12-10T07:44:14;24.77;;;16.17;;
4786;SDS011;62338;48.832;9.422;2022-12-10T07:46:17;29.30;;;18.07;;
4786;SDS011;62338;48.832;9.422;2022-12-10T07:48:21;28.43;;;17.60;;
4786;SDS011;62338;48.832;9.422;2022-12-10T07:50:23;26.97;;;17.83;;
4786;SDS011;62338;48.832;9.422;2022-12-10T07:52:25;28.97;;;19.80;;
4786;SDS011;62338;48.832;9.422;2022-12-10T07:54:27;29.97;;;21.17;;
4786;SDS011;62338;48.832;9.422;2022-12-10T07:56:29;27.13;;;18.20;;
4786;SDS011;62338;48.832;9.422;2022-12-10T07:58:31;25.47;;;18.23;;
4786;SDS011;62338;48.832;9.422;2022-12-10T08:00:33;26.40;;;17.80;;
4786;SDS011;62338;48.832;9.422;2022-12-10T08:02:35;29.03;;;19.50;;
4786;SDS011;62338;48.832;9.422;2022-12-10T08:04:37;30.90;;;20.10;;
4786;SDS011;62338;48.832;9.422;2022-12-10T08:06:39;28.83;;;20.87;;
4786;SDS011;62338;48.832;9.422;2022-12-10T08:08:40;29.03;;;19.93;;
4786;SDS011;62338;48.832;9.422;2022-12-10T08:10:43;31.50;;;21.40;;
4786;SDS011;62338;48.832;9.422;2022-12-10T08:12:45;34.17;;;21.23;;
4786;SDS011;62338;48.832;9.422;2022-12-10T08:14:47;33.33;;;21.30;;
4786;SDS011;62338;48.832;9.422;2022-12-10T08:16:50;30.07;;;19.90;;
4786;SDS011;62338;48.832;9.422;2022-12-10T08:18:53;31.60;;;20.33;;
4786;SDS011;62338;48.832;9.422;2022-12-10T08:20:57;33.60;;;20.60;;
4786;SDS011;62338;48.832;9.422;2022-12-10T08:23:00;29.77;;;19.83;;
4786;SDS011;62338;48.832;9.422;2022-12-10T08:25:02;35.77;;;21.20;;
4786;SDS011;62338;48.832;9.422;2022-12-10T08:27:05;29.97;;;19.80;;
4786;SDS011;62338;48.832;9.422;2022-12-10T08:29:07;33.10;;;21.53;;
4786;SDS011;62338;48.832;9.422;2022-12-10T08:31:09;30.40;;;19.13;;
4786;SDS011;62338;48.832;9.422;2022-12-10T08:33:12;32.77;;;20.83;;
4786;SDS011;62338;48.832;9.422;2022-12-10T08:35:14;35.03;;;23.07;;
4786;SDS011;62338;48.832;9.422;2022-12-10T08:37:17;37.87;;;24.80;;
4786;SDS011;62338;48.832;9.422;2022-12-10T08:39:19;37.47;;;24.93;;
4786;SDS011;62338;48.832;9.422;2022-12-10T08:41:23;36.37;;;24.80;;
4786;SDS011;62338;48.832;9.422;2022-12-10T08:43:25;39.53;;;25.10;;
4786;SDS011;62338;48.832;9.422;2022-12-10T08:45:26;35.10;;;22.03;;
4786;SDS011;62338;48.832;9.422;2022-12-10T08:47:28;33.80;;;21.87;;
4786;SDS011;62338;48.832;9.422;2022-12-10T08:49:30;32.70;;;21.63;;
4786;SDS011;62338;48.832;9.422;2022-12-10T08:51:32;29.83;;;18.77;;
4786;SDS011;62338;48.832;9.422;2022-12-10T08:53:34;29.83;;;19.10;;
4786;SDS011;62338;48.832;9.422;2022-12-10T08:55:39;28.53;;;19.70;;
4786;SDS011;62338;48.832;9.422;2022-12-10T08:57:48;28.43;;;18.57;;
4786;SDS011;62338;48.832;9.422;2022-12-10T08:59:50;29.53;;;18.57;;
4786;SDS011;62338;48.832;9.422;2022-12-10T09:01:52;29.30;;;20.30;;
4786;SDS011;62338;48.832;9.422;2022-12-10T09:03:57;25.27;;;16.73;;
4786;SDS011;62338;48.832;9.422;2022-12-10T09:06:07;26.97;;;18.17;;
4786;SDS011;62338;48.832;9.422;2022-12-10T09:08:11;25.17;;;16.33;;
4786;SDS011;62338;48.832;9.422;2022-12-10T09:10:13;26.80;;;18.17;;
4786;SDS011;62338;48.832;9.422;2022-12-10T09:12:14;24.23;;;16.43;;
4786;SDS011;62338;48.832;9.422;2022-12-10T09:14:16;25.07;;;17.53;;
4786;SDS011;62338;48.832;9.422;2022-12-10T09:16:18;26.23;;;17.07;;
4786;SDS011;62338;48.832;9.422;2022-12-10T09:18:20;29.20;;;18.23;;
4786;SDS011;62338;48.832;9.422;2022-12-10T09:20:22;26.53;;;18.50;;
4786;SDS011;62338;48.832;9.422;2022-12-10T09:22:24;29.67;;;18.07;;
4786;SDS011;62338;48.832;9.422;2022-12-10T09:24:25;24.70;;;17.43;;
4786;SDS011;62338;48.832;9.422;2022-12-10T09:26:27;30.37;;;19.27;;
4786;SDS011;62338;48.832;9.422;2022-12-10T09:28:29;38.33;;;24.80;;
4786;SDS011;62338;48.832;9.422;2022-12-10T09:30:31;47.70;;;29.07;;
4786;SDS011;62338;48.832;9.422;2022-12-10T09:32:32;37.93;;;23.50;;
4786;SDS011;62338;48.832;9.422;2022-12-10T09:34:34;33.80;;;19.97;;
4786;SDS011;62338;48.832;9.422;2022-12-10T09:36:36;25.53;;;17.47;;
4786;SDS011;62338;48.832;9.422;2022-12-10T09:38:39;31.27;;;18.40;;
4786;SDS011;62338;48.832;9.422;2022-12-10T09:40:53;31.63;;;19.93;;
4786;SDS011;62338;48.832;9.422;2022-12-10T09:43:22;26.43;;;17.37;;
4786;SDS011;62338;48.832;9.422;2022-12-10T09:50:47;24.17;;;15.70;;
4786;SDS011;62338;48.832;9.422;2022-12-10T09:52:56;25.37;;;16.43;;
4786;SDS011;62338;48.832;9.422;2022-12-10T09:55:01;26.60;;;16.33;;
4786;SDS011;62338;48.832;9.422;2022-12-10T09:57:32;26.47;;;17.43;;
4786;SDS011;62338;48.832;9.422;2022-12-10T09:59:46;24.90;;;16.37;;
4786;SDS011;62338;48.832;9.422;2022-12-10T10:02:01;23.53;;;15.30;;
4786;SDS011;62338;48.832;9.422;2022-12-10T10:04:20;22.67;;;14.93;;
4786;SDS011;62338;48.832;9.422;2022-12-10T10:06:23;28.27;;;17.20;;
4786;SDS011;62338;48.832;9.422;2022-12-10T10:10:41;26.03;;;15.40;;
4786;SDS011;62338;48.832;9.422;2022-12-10T10:12:43;28.37;;;16.00;;
4786;SDS011;62338;48.832;9.422;2022-12-10T10:14:46;24.63;;;16.40;;
4786;SDS011;62338;48.832;9.422;2022-12-10T10:16:55;28.83;;;17.40;;
4786;SDS011;62338;48.832;9.422;2022-12-10T10:19:11;53.00;;;25.17;;
4786;SDS011;62338;48.832;9.422;2022-12-10T10:21:22;39.03;;;20.10;;
4786;SDS011;62338;48.832;9.422;2022-12-10T10:23:26;27.43;;;17.20;;
4786;SDS011;62338;48.832;9.422;2022-12-10T10:25:28;23.17;;;14.23;;
4786;SDS011;62338;48.832;9.422;2022-12-10T10:27:30;25.03;;;15.90;;
4786;SDS011;62338;48.832;9.422;2022-12-10T10:29:33;24.70;;;14.93;;
4786;SDS011;62338;48.832;9.422;2022-12-10T10:31:36;24.37;;;15.60;;
4786;SDS011;62338;48.832;9.422;2022-12-10T10:33:47;24.60;;;16.00;;
4786;SDS011;62338;48.832;9.422;2022-12-10T10:35:56;24.33;;;15.17;;
4786;SDS011;62338;48.832;9.422;2022-12-10T10:38:00;21.77;;;14.37;;
4786;SDS011;62338;48.832;9.422;2022-12-10T10:40:06;22.57;;;13.90;;
4786;SDS011;62338;48.832;9.422;2022-12-10T10:44:36;22.37;;;14.80;;
4786;SDS011;62338;48.832;9.422;2022-12-10T10:46:39;24.93;;;15.67;;
4786;SDS011;62338;48.832;9.422;2022-12-10T10:48:42;24.10;;;16.10;;
4786;SDS011;62338;48.832;9.422;2022-12-10T10:50:45;24.53;;;16.03;;
4786;SDS011;62338;48.832;9.422;2022-12-10T10:52:49;27.80;;;17.77;;
4786;SDS011;62338;48.832;9.422;2022-12-10T10:54:51;27.00;;;18.17;;
4786;SDS011;62338;48.832;9.422;2022-12-10T10:56:53;26.60;;;16.77;;
4786;SDS011;62338;48.832;9.422;2022-12-10T11:01:04;22.50;;;15.50;;
4786;SDS011;62338;48.832;9.422;2022-12-10T11:03:10;23.07;;;15.50;;
4786;SDS011;62338;48.832;9.422;2022-12-10T11:05:25;21.53;;;14.40;;
4786;SDS011;62338;48.832;9.422;2022-12-10T11:07:37;21.10;;;14.13;;
4786;SDS011;62338;48.832;9.422;2022-12-10T11:09:43;23.40;;;15.10;;
4786;SDS011;62338;48.832;9.422;2022-12-10T11:11:49;26.53;;;16.13;;
4786;SDS011;62338;48.832;9.422;2022-12-10T11:13:52;24.97;;;16.10;;
4786;SDS011;62338;48.832;9.422;2022-12-10T11:15:58;24.53;;;15.13;;
4786;SDS011;62338;48.832;9.422;2022-12-10T11:18:51;23.47;;;15.67;;
4786;SDS011;62338;48.832;9.422;2022-12-10T11:20:42;25.40;;;15.47;;
4786;SDS011;62338;48.832;9.422;2022-12-10T11:23:02;24.63;;;15.43;;
4786;SDS011;62338;48.832;9.422;2022-12-10T11:25:11;27.30;;;16.33;;
4786;SDS011;62338;48.832;9.422;2022-12-10T11:27:57;24.50;;;15.07;;
4786;SDS011;62338;48.832;9.422;2022-12-10T11:37:26;21.20;;;15.60;;
4786;SDS011;62338;48.832;9.422;2022-12-10T11:44:20;25.60;;;16.10;;
4786;SDS011;62338;48.832;9.422;2022-12-10T11:46:42;25.47;;;16.90;;
4786;SDS011;62338;48.832;9.422;2022-12-10T11:49:05;24.47;;;16.37;;
4786;SDS011;62338;48.832;9.422;2022-12-10T11:51:34;28.80;;;15.93;;
4786;SDS011;62338;48.832;9.422;2022-12-10T11:53:53;23.43;;;14.67;;
4786;SDS011;62338;48.832;9.422;2022-12-10T11:56:35;22.60;;;15.67;;
4786;SDS011;62338;48.832;9.422;2022-12-10T11:58:46;22.73;;;15.77;;
4786;SDS011;62338;48.832;9.422;2022-12-10T12:00:59;25.37;;;17.37;;
4786;SDS011;62338;48.832;9.422;2022-12-10T12:15:00;27.70;;;17.67;;
4786;SDS011;62338;48.832;9.422;2022-12-10T12:17:50;26.83;;;16.60;;
4786;SDS011;62338;48.832;9.422;2022-12-10T12:19:37;26.00;;;17.07;;
4786;SDS011;62338;48.832;9.422;2022-12-10T12:21:41;24.63;;;16.37;;
4786;SDS011;62338;48.832;9.422;2022-12-10T12:28:31;25.63;;;15.73;;
4786;SDS011;62338;48.832;9.422;2022-12-10T12:30:35;24.10;;;14.43;;
4786;SDS011;62338;48.832;9.422;2022-12-10T12:35:06;23.20;;;16.00;;
4786;SDS011;62338;48.832;9.422;2022-12-10T12:37:15;25.80;;;14.97;;
4786;SDS011;62338;48.832;9.422;2022-12-10T12:39:23;24.83;;;16.27;;
4786;SDS011;62338;48.832;9.422;2022-12-10T12:45:44;24.83;;;16.13;;
4786;SDS011;62338;48.832;9.422;2022-12-10T12:50:45;23.00;;;13.50;;
4786;SDS011;62338;48.832;9.422;2022-12-10T12:52:54;21.90;;;13.90;;
4786;SDS011;62338;48.832;9.422;2022-12-10T12:54:59;21.50;;;14.67;;
4786;SDS011;62338;48.832;9.422;2022-12-10T12:57:13;35.70;;;19.10;;
4786;SDS011;62338;48.832;9.422;2022-12-10T13:01:59;22.17;;;14.97;;
4786;SDS011;62338;48.832;9.422;2022-12-10T13:04:38;24.30;;;15.13;;
4786;SDS011;62338;48.832;9.422;2022-12-10T13:06:41;24.73;;;15.10;;
4786;SDS011;62338;48.832;9.422;2022-12-10T13:08:49;19.60;;;13.10;;
4786;SDS011;62338;48.832;9.422;2022-12-10T13:13:28;21.30;;;13.97;;
4786;SDS011;62338;48.832;9.422;2022-12-10T13:15:33;19.63;;;12.50;;
4786;SDS011;62338;48.832;9.422;2022-12-10T13:17:36;19.37;;;12.97;;
4786;SDS011;62338;48.832;9.422;2022-12-10T13:19:39;20.77;;;13.60;;
4786;SDS011;62338;48.832;9.422;2022-12-10T13:23:53;20.17;;;13.43;;
4786;SDS011;62338;48.832;9.422;2022-12-10T13:26:17;18.60;;;13.07;;
4786;SDS011;62338;48.832;9.422;2022-12-10T13:30:30;21.03;;;13.17;;
4786;SDS011;62338;48.832;9.422;2022-12-10T13:34:36;22.37;;;13.17;;
4786;SDS011;62338;48.832;9.422;2022-12-10T13:39:10;25.37;;;16.07;;
4786;SDS011;62338;48.832;9.422;2022-12-10T13:41:13;24.33;;;15.20;;
4786;SDS011;62338;48.832;9.422;2022-12-10T13:46:19;21.83;;;14.03;;
4786;SDS011;62338;48.832;9.422;2022-12-10T13:48:31;18.87;;;13.70;;
4786;SDS011;62338;48.832;9.422;2022-12-10T13:51:16;21.40;;;14.67;;
4786;SDS011;62338;48.832;9.422;2022-12-10T13:57:48;19.07;;;13.50;;